Disclaimer

Please do not use the information listed here in-flight or in-navigation, as they are not provided to us by the airports but are provided by volunteers, so they might be outdated.

Search


Regions


Airport information page

No radio frequency information is available.

Airport informations:
Latitude: 52° 03' 38.00" N
Longitude: 005° 52' 23.00" E
Elevation: 158 feet - 48 meters
Operating hours: N/A
Operating agency: Military
Timezone: UTC+1(+2DT)
Fuel: N/A

Runway information:
02/20 - 9678 x 164 feet< - >2950 x 50 meters

Recent METARs:
EHDL 170755Z AUTO 09004KT 010V150 5000 BR NCD 02/01 Q1031 WHT
EHDL 170825Z AUTO 09004KT 020V150 5000 BR NCD 02/01 Q1031 WHT
EHDL 170855Z AUTO 08004KT 020V190 6000 BR NCD 03/01 Q1031 WHT

Airport on the map: